Time;durP1;ratioP1;P1;durP2;ratioP2;P2;SDS_P1;SDS_P2;PMS_P1;PMS_P2;Temp;Humidity;BMP_temperature;BMP_pressure;BME280_temperature;BME280_humidity;BME280_pressure;Samples;Min_cycle;Max_cycle;Signal;HPM_P1;HPM_P2
2022/07/20 00:00:47;;;;;;;2.00;1.90;;;25.80;64.90;;;;;;6242775;22;43442;-62
2022/07/20 00:03:15;;;;;;;2.17;2.05;;;25.80;64.90;;;;;;6242793;22;43487;-62
2022/07/20 00:05:43;;;;;;;2.30;2.10;;;25.80;64.90;;;;;;6243216;22;43816;-63
2022/07/20 00:08:11;;;;;;;2.10;2.00;;;25.80;64.90;;;;;;6241876;22;43348;-62
2022/07/20 00:13:24;;;;;;;2.60;2.10;;;25.70;64.80;;;;;;6243037;22;43403;-62
2022/07/20 00:15:52;;;;;;;2.35;2.10;;;25.70;64.80;;;;;;6241724;22;44770;-62
2022/07/20 00:18:19;;;;;;;2.00;1.90;;;25.70;64.70;;;;;;6242974;22;43409;-62
2022/07/20 00:20:47;;;;;;;2.30;2.20;;;25.70;64.60;;;;;;6242998;22;43387;-62
2022/07/20 00:23:14;;;;;;;2.53;2.33;;;25.70;64.60;;;;;;6242419;22;43403;-62
2022/07/20 00:25:42;;;;;;;2.30;2.10;;;25.70;64.60;;;;;;6243085;22;43984;-62
2022/07/20 00:28:10;;;;;;;2.00;1.90;;;25.70;64.70;;;;;;6242689;22;43871;-62
2022/07/20 00:30:37;;;;;;;2.47;2.20;;;25.70;64.60;;;;;;6242169;22;43938;-62
2022/07/20 00:33:05;;;;;;;2.25;2.15;;;25.70;64.60;;;;;;6243102;22;43475;-62
2022/07/20 00:35:33;;;;;;;2.33;2.13;;;25.70;64.60;;;;;;6242611;22;44948;-62
2022/07/20 00:38:00;;;;;;;2.40;2.20;;;25.70;64.60;;;;;;6242690;22;43438;-62
2022/07/20 00:40:28;;;;;;;2.45;2.25;;;25.70;64.60;;;;;;6243249;22;43408;-62
2022/07/20 00:42:55;;;;;;;2.20;2.10;;;25.60;64.60;;;;;;6243024;22;43361;-62
2022/07/20 00:45:22;;;;;;;2.10;2.00;;;25.60;64.60;;;;;;6242656;22;43780;-62
2022/07/20 00:47:51;;;;;;;2.17;2.00;;;25.60;64.60;;;;;;6242751;22;43956;-62
2022/07/20 00:50:19;;;;;;;2.05;1.90;;;25.60;64.50;;;;;;6242881;22;43549;-62
2022/07/20 00:52:46;;;;;;;2.30;2.20;;;25.60;64.50;;;;;;6242381;22;43423;-62
2022/07/20 00:55:14;;;;;;;2.80;2.60;;;25.60;64.50;;;;;;6242757;22;44011;-62
2022/07/20 00:57:42;;;;;;;2.58;2.38;;;25.60;64.50;;;;;;6242113;22;43667;-62
2022/07/20 01:00:12;;;;;;;2.30;2.10;;;25.60;64.50;;;;;;6242680;22;43446;-62
2022/07/20 01:02:40;;;;;;;2.30;2.20;;;25.50;64.50;;;;;;6243229;22;43931;-62
2022/07/20 01:05:13;;;;;;;2.35;2.15;;;25.50;64.50;;;;;;6242099;22;44040;-62
2022/07/20 01:07:47;;;;;;;2.40;2.20;;;25.50;64.50;;;;;;6243007;22;43352;-62
2022/07/20 01:10:16;;;;;;;2.13;2.03;;;25.50;64.50;;;;;;6242886;22;43974;-62
2022/07/20 01:12:46;;;;;;;2.30;2.20;;;25.50;64.50;;;;;;6242320;22;43530;-62
2022/07/20 01:15:14;;;;;;;2.33;2.20;;;25.50;64.60;;;;;;6242727;22;43786;-62
2022/07/20 01:17:43;;;;;;;2.35;2.15;;;25.50;64.60;;;;;;6242617;22;43371;-62
2022/07/20 01:20:16;;;;;;;2.40;2.30;;;25.50;64.60;;;;;;6242100;22;43460;-62
2022/07/20 01:22:44;;;;;;;2.70;2.50;;;25.50;64.60;;;;;;6242677;22;43550;-62
2022/07/20 01:25:12;;;;;;;2.25;2.15;;;25.50;64.70;;;;;;6242242;22;43794;-62
2022/07/20 01:27:40;;;;;;;2.50;2.30;;;25.40;64.60;;;;;;6242005;22;43942;-62
2022/07/20 01:30:08;;;;;;;2.15;2.05;;;25.40;64.60;;;;;;6242406;22;43567;-62
2022/07/20 01:32:36;;;;;;;2.17;2.03;;;25.40;64.60;;;;;;6242334;22;43497;-62
2022/07/20 01:35:03;;;;;;;2.40;2.20;;;25.40;64.60;;;;;;6241930;22;44926;-62
2022/07/20 01:37:31;;;;;;;2.35;2.25;;;25.40;64.60;;;;;;6242517;22;43932;-62
2022/07/20 01:39:59;;;;;;;2.60;2.15;;;25.40;64.60;;;;;;6242460;22;43543;-62
2022/07/20 01:42:26;;;;;;;2.78;2.30;;;25.40;64.60;;;;;;6242572;22;43468;-62
2022/07/20 01:44:53;;;;;;;2.50;2.30;;;25.40;64.60;;;;;;6242761;22;44625;-62
2022/07/20 01:47:21;;;;;;;2.22;2.13;;;25.40;64.60;;;;;;6241563;22;43420;-62
2022/07/20 01:49:48;;;;;;;2.40;2.20;;;25.40;64.60;;;;;;6242153;22;43400;-62
2022/07/20 01:52:16;;;;;;;2.40;2.20;;;25.40;64.60;;;;;;6242398;22;43382;-62
2022/07/20 01:54:43;;;;;;;2.40;2.20;;;25.40;64.50;;;;;;6241624;22;44662;-62
2022/07/20 01:57:11;;;;;;;2.78;2.58;;;25.30;64.60;;;;;;6242362;22;43678;-62
2022/07/20 01:59:38;;;;;;;2.33;2.22;;;25.30;64.60;;;;;;6242321;22;43383;-62
2022/07/20 02:02:06;;;;;;;2.40;2.20;;;25.30;64.60;;;;;;6241802;22;43471;-62
2022/07/20 02:04:34;;;;;;;2.35;2.25;;;25.30;64.60;;;;;;6241963;22;43942;-62
2022/07/20 02:07:02;;;;;;;2.20;2.10;;;25.30;64.60;;;;;;6242839;22;43377;-62
2022/07/20 02:09:29;;;;;;;2.30;2.20;;;25.30;64.60;;;;;;6243255;22;43455;-62
2022/07/20 02:11:57;;;;;;;2.45;2.25;;;25.30;64.60;;;;;;6243713;22;43466;-62
2022/07/20 02:14:24;;;;;;;2.30;2.15;;;25.30;64.60;;;;;;6243460;22;43763;-62
2022/07/20 02:16:52;;;;;;;2.35;2.10;;;25.30;64.60;;;;;;6243191;22;43388;-62
2022/07/20 02:19:19;;;;;;;2.40;2.20;;;25.30;64.60;;;;;;6243804;22;43429;-62
2022/07/20 02:21:47;;;;;;;2.40;2.20;;;25.20;64.50;;;;;;6243195;22;43446;-62
2022/07/20 02:24:14;;;;;;;2.53;2.33;;;25.30;64.60;;;;;;6242774;22;43834;-62
2022/07/20 02:26:42;;;;;;;2.47;2.28;;;25.20;64.50;;;;;;6243521;22;44051;-62
2022/07/20 02:29:09;;;;;;;2.33;2.20;;;25.20;64.50;;;;;;6242553;22;43427;-62
2022/07/20 02:31:36;;;;;;;2.40;2.30;;;25.20;64.50;;;;;;6243521;22;43444;-62
2022/07/20 02:34:04;;;;;;;2.60;2.40;;;25.20;64.50;;;;;;6243285;22;44997;-62
2022/07/20 02:36:31;;;;;;;2.67;2.17;;;25.20;64.50;;;;;;6242616;22;43708;-62
2022/07/20 02:38:59;;;;;;;2.60;2.40;;;25.20;64.50;;;;;;6244266;22;43503;-62
2022/07/20 02:41:27;;;;;;;2.33;2.20;;;25.20;64.50;;;;;;6243435;22;43411;-62
2022/07/20 02:43:54;;;;;;;2.17;2.08;;;25.20;64.50;;;;;;6243058;22;44722;-62
2022/07/20 02:46:24;;;;;;;2.00;1.90;;;25.20;64.50;;;;;;6243164;22;44455;-62
2022/07/20 02:48:52;;;;;;;2.30;2.10;;;25.20;64.50;;;;;;6243198;22;43437;-62
2022/07/20 02:51:20;;;;;;;2.50;2.30;;;25.20;64.50;;;;;;6242773;22;43391;-62
2022/07/20 02:53:47;;;;;;;2.10;2.00;;;25.20;64.50;;;;;;6243639;22;44658;-61
2022/07/20 02:56:15;;;;;;;2.50;2.30;;;25.10;64.30;;;;;;6243413;22;43677;-62
2022/07/20 02:58:42;;;;;;;2.53;2.33;;;25.20;64.40;;;;;;6243018;22;43383;-62
2022/07/20 03:01:10;;;;;;;2.45;2.35;;;25.20;64.40;;;;;;6243678;22;43470;-62
2022/07/20 03:03:37;;;;;;;2.30;2.20;;;25.10;64.30;;;;;;6243339;22;44064;-62
2022/07/20 03:06:05;;;;;;;2.35;2.13;;;25.10;64.30;;;;;;6243125;22;43952;-62
2022/07/20 03:08:33;;;;;;;2.40;2.20;;;25.10;64.30;;;;;;6243478;22;43400;-62
2022/07/20 03:11:01;;;;;;;2.47;2.28;;;25.10;64.30;;;;;;6243595;22;43474;-62
2022/07/20 03:13:28;;;;;;;2.15;1.95;;;25.10;64.30;;;;;;6242696;22;43757;-61
2022/07/20 03:15:55;;;;;;;2.45;2.25;;;25.10;64.30;;;;;;6243486;22;43507;-61
2022/07/20 03:18:23;;;;;;;2.17;2.05;;;25.10;64.20;;;;;;6241956;22;43386;-62
2022/07/20 03:20:51;;;;;;;2.05;1.95;;;25.10;64.30;;;;;;6243484;22;43399;-61
2022/07/20 03:23:19;;;;;;;2.60;2.40;;;25.10;64.20;;;;;;6243287;22;44037;-62
2022/07/20 03:25:46;;;;;;;2.20;2.10;;;25.10;64.30;;;;;;6242496;22;43436;-62
2022/07/20 03:28:14;;;;;;;2.80;2.38;;;25.10;64.30;;;;;;6243319;22;43388;-62
2022/07/20 03:30:41;;;;;;;2.30;2.10;;;25.10;64.30;;;;;;6242909;22;43418;-62
2022/07/20 03:33:09;;;;;;;2.40;2.20;;;25.10;64.30;;;;;;6242220;22;43779;-61
2022/07/20 03:35:36;;;;;;;2.40;2.25;;;25.10;64.30;;;;;;6243121;22;43656;-62
2022/07/20 03:38:03;;;;;;;2.90;2.40;;;25.10;64.30;;;;;;6243306;22;43404;-62
2022/07/20 03:40:31;;;;;;;2.10;2.00;;;25.10;64.30;;;;;;6242671;22;43406;-61
2022/07/20 03:42:59;;;;;;;2.08;1.98;;;25.00;64.20;;;;;;6243168;22;44904;-62
2022/07/20 03:45:26;;;;;;;2.55;2.35;;;25.10;64.20;;;;;;6243191;22;43916;-61
2022/07/20 03:47:55;;;;;;;2.47;2.38;;;25.00;64.20;;;;;;6243115;22;43377;-62
2022/07/20 03:50:23;;;;;;;3.03;2.30;;;25.00;64.20;;;;;;6243075;22;43406;-62
2022/07/20 03:52:51;;;;;;;2.30;2.10;;;25.00;64.20;;;;;;6243223;22;43762;-62
2022/07/20 03:55:19;;;;;;;3.72;2.40;;;25.00;64.20;;;;;;6242985;22;43387;-62
2022/07/20 03:57:46;;;;;;;2.53;2.25;;;25.00;64.20;;;;;;6243531;22;43383;-62
2022/07/20 04:00:14;;;;;;;1.92;1.83;;;25.00;64.20;;;;;;6243082;22;43498;-62
2022/07/20 04:02:42;;;;;;;2.17;2.08;;;25.00;64.20;;;;;;6242370;22;43835;-62
2022/07/20 04:05:09;;;;;;;2.58;2.20;;;25.00;64.20;;;;;;6243055;22;43357;-62
2022/07/20 04:07:37;;;;;;;2.40;2.30;;;25.00;64.20;;;;;;6242563;22;43447;-62
2022/07/20 04:10:05;;;;;;;2.40;2.20;;;24.90;64.10;;;;;;6242949;22;44265;-62
2022/07/20 04:12:32;;;;;;;2.17;2.08;;;24.90;64.10;;;;;;6242960;22;43559;-62
2022/07/20 04:14:59;;;;;;;2.33;2.13;;;24.90;64.10;;;;;;6242599;22;43956;-62
2022/07/20 04:17:27;;;;;;;2.25;2.13;;;24.90;64.10;;;;;;6243344;22;43332;-62
2022/07/20 04:19:55;;;;;;;2.40;2.20;;;24.90;64.10;;;;;;6243174;22;43454;-62
2022/07/20 04:22:22;;;;;;;2.65;2.45;;;24.90;64.10;;;;;;6242400;22;43987;-62
2022/07/20 04:24:50;;;;;;;2.63;2.42;;;24.90;64.10;;;;;;6243319;22;43423;-61
2022/07/20 04:27:17;;;;;;;2.42;2.22;;;24.90;64.10;;;;;;6242871;22;43381;-62
2022/07/20 04:29:46;;;;;;;2.58;2.38;;;24.90;64.10;;;;;;6241866;22;43511;-61
2022/07/20 04:32:13;;;;;;;2.30;2.10;;;24.90;64.10;;;;;;6242878;22;43763;-62
2022/07/20 04:34:40;;;;;;;2.30;2.20;;;24.90;64.10;;;;;;6242539;22;43822;-62
2022/07/20 04:37:10;;;;;;;2.40;2.20;;;24.80;63.80;;;;;;6239336;22;43362;-62
2022/07/20 04:39:37;;;;;;;2.33;2.17;;;24.90;64.10;;;;;;6242834;22;43443;-62
2022/07/20 04:42:05;;;;;;;2.35;2.17;;;24.80;64.00;;;;;;6241473;22;44647;-62
2022/07/20 04:44:32;;;;;;;2.38;2.17;;;24.80;63.90;;;;;;6242118;22;43355;-62
2022/07/20 04:47:00;;;;;;;2.45;2.25;;;24.90;64.00;;;;;;6242839;22;43703;-61
2022/07/20 04:49:27;;;;;;;2.33;2.08;;;24.80;63.90;;;;;;6242550;22;43562;-60
2022/07/20 04:51:55;;;;;;;2.28;2.08;;;24.80;64.00;;;;;;6242145;22;43784;-61
2022/07/20 04:54:23;;;;;;;2.40;2.20;;;24.80;64.00;;;;;;6241428;22;43441;-61
2022/07/20 04:56:50;;;;;;;2.42;2.22;;;24.80;64.00;;;;;;6241832;22;43419;-61
2022/07/20 04:59:18;;;;;;;2.55;2.30;;;24.80;64.00;;;;;;6242723;22;43527;-61
2022/07/20 05:01:46;;;;;;;2.10;2.00;;;24.80;64.00;;;;;;6242393;22;44614;-61
2022/07/20 05:04:13;;;;;;;2.53;2.40;;;24.80;64.00;;;;;;6240625;22;43768;-61
2022/07/20 05:06:41;;;;;;;2.55;2.38;;;24.80;64.10;;;;;;6242623;22;43396;-61
2022/07/20 05:09:10;;;;;;;2.53;2.30;;;24.80;64.00;;;;;;6214960;22;43448;-61
2022/07/20 05:11:39;;;;;;;2.45;2.25;;;24.80;64.00;;;;;;6241955;22;44594;-61
2022/07/20 05:14:08;;;;;;;2.30;2.10;;;24.80;64.00;;;;;;6241410;22;43646;-61
2022/07/20 05:16:37;;;;;;;2.58;2.38;;;24.80;64.00;;;;;;6241035;22;43393;-61
2022/07/20 05:19:05;;;;;;;2.33;2.22;;;24.70;64.00;;;;;;6215211;22;43441;-62
2022/07/20 05:21:41;;;;;;;2.40;2.20;;;24.70;64.00;;;;;;6242448;22;43830;-62
2022/07/20 05:24:09;;;;;;;2.50;2.30;;;24.70;64.00;;;;;;6241006;22;43411;-62
2022/07/20 05:26:37;;;;;;;2.90;2.50;;;24.70;64.00;;;;;;6214654;22;43380;-62
2022/07/20 05:29:05;;;;;;;2.30;2.20;;;24.70;64.10;;;;;;6241000;22;43399;-62
2022/07/20 05:31:33;;;;;;;2.10;2.00;;;24.70;64.10;;;;;;6242047;22;44204;-62
2022/07/20 05:34:01;;;;;;;3.00;2.30;;;24.70;64.10;;;;;;6241315;22;43724;-62
2022/07/20 05:36:29;;;;;;;2.40;2.20;;;24.70;64.10;;;;;;6242101;22;43380;-61
2022/07/20 05:38:56;;;;;;;2.75;2.10;;;24.70;64.10;;;;;;6241792;22;43491;-61
2022/07/20 05:41:25;;;;;;;3.00;2.28;;;24.70;64.10;;;;;;6241835;22;45063;-61
2022/07/20 05:43:52;;;;;;;2.55;2.33;;;24.70;64.10;;;;;;6242433;22;43933;-61
2022/07/20 05:46:20;;;;;;;2.00;1.90;;;24.70;64.10;;;;;;6215494;22;43386;-61
2022/07/20 05:48:47;;;;;;;2.17;1.98;;;24.70;63.90;;;;;;6242477;22;43973;-61
2022/07/20 05:51:15;;;;;;;2.42;2.25;;;24.70;63.90;;;;;;6241856;22;45005;-61
2022/07/20 05:53:57;;;;;;;2.20;2.10;;;24.70;63.90;;;;;;6242154;22;43407;-61
2022/07/20 05:56:24;;;;;;;2.20;2.10;;;24.70;63.80;;;;;;6242832;22;43471;-61
2022/07/20 05:58:51;;;;;;;2.65;2.10;;;24.70;63.80;;;;;;6242332;22;43526;-61
2022/07/20 06:01:20;;;;;;;2.53;2.15;;;24.70;63.80;;;;;;6241632;22;44953;-61
2022/07/20 06:03:47;;;;;;;2.58;2.30;;;24.80;63.80;;;;;;6242711;22;43423;-61
2022/07/20 06:06:15;;;;;;;2.50;2.30;;;24.70;63.80;;;;;;6241438;22;43437;-61
2022/07/20 06:08:42;;;;;;;2.30;2.03;;;24.70;63.80;;;;;;6241957;22;43530;-61
2022/07/20 06:11:30;;;;;;;2.50;2.30;;;24.80;63.90;;;;;;6242007;22;44682;-61
2022/07/20 06:13:58;;;;;;;2.25;2.15;;;24.70;63.80;;;;;;6242378;22;43698;-61
2022/07/20 06:16:26;;;;;;;2.40;2.20;;;24.80;63.90;;;;;;6241797;22;43373;-61
2022/07/20 06:18:53;;;;;;;2.33;2.13;;;24.70;63.80;;;;;;6242667;22;43415;-61
2022/07/20 06:21:21;;;;;;;3.60;1.85;;;24.70;63.70;;;;;;6241035;22;44018;-61
2022/07/20 06:23:48;;;;;;;2.63;2.40;;;24.70;63.60;;;;;;6242337;22;43371;-61
2022/07/20 06:26:16;;;;;;;2.45;2.28;;;24.70;63.70;;;;;;6242075;22;43377;-61
2022/07/20 06:28:43;;;;;;;2.45;2.25;;;24.70;63.70;;;;;;6241207;22;43450;-61
2022/07/20 06:31:11;;;;;;;3.58;2.10;;;24.70;63.60;;;;;;6241780;22;44720;-61
2022/07/20 06:33:39;;;;;;;2.00;1.90;;;24.70;63.60;;;;;;6215213;22;43434;-61
2022/07/20 06:36:07;;;;;;;3.10;2.47;;;24.70;63.60;;;;;;6241595;22;43940;-61
2022/07/20 06:38:35;;;;;;;2.70;2.30;;;24.70;63.60;;;;;;6242158;22;44053;-61
2022/07/20 06:41:02;;;;;;;3.03;2.33;;;24.70;63.60;;;;;;6242009;22;43720;-61
2022/07/20 06:43:30;;;;;;;2.22;2.13;;;24.70;63.60;;;;;;6241595;22;43390;-61
2022/07/20 06:45:57;;;;;;;2.42;2.20;;;24.70;63.50;;;;;;6241945;22;43352;-61
2022/07/20 06:48:25;;;;;;;2.30;2.20;;;24.80;63.60;;;;;;6241676;22;43928;-61
2022/07/20 06:50:52;;;;;;;2.92;2.00;;;24.70;63.50;;;;;;6240848;22;44673;-61
2022/07/20 06:53:20;;;;;;;2.50;2.30;;;24.70;63.60;;;;;;6242713;22;43926;-61
2022/07/20 06:55:48;;;;;;;2.88;2.28;;;24.80;63.60;;;;;;6243078;22;43324;-61
2022/07/20 06:58:15;;;;;;;3.60;2.30;;;24.70;63.50;;;;;;6243122;22;43717;-61
2022/07/20 07:00:42;;;;;;;3.15;2.25;;;24.70;63.50;;;;;;6243227;22;44748;-61
2022/07/20 07:03:10;;;;;;;2.38;2.20;;;24.80;63.60;;;;;;6243301;22;43419;-61
2022/07/20 07:05:38;;;;;;;2.72;2.20;;;24.70;63.40;;;;;;6243016;22;43387;-61
2022/07/20 07:08:05;;;;;;;2.40;2.20;;;24.70;63.50;;;;;;6243335;22;43538;-61
2022/07/20 07:10:33;;;;;;;1.95;1.77;;;24.70;63.50;;;;;;6242215;22;44007;-61
2022/07/20 07:13:00;;;;;;;3.55;2.30;;;24.70;63.50;;;;;;6243647;22;43639;-61
2022/07/20 07:15:28;;;;;;;2.40;2.10;;;24.70;63.40;;;;;;6243165;22;43348;-61
2022/07/20 07:17:55;;;;;;;2.47;2.05;;;24.80;63.40;;;;;;6242774;22;43483;-61
2022/07/20 07:20:23;;;;;;;2.45;2.25;;;24.70;64.00;;;;;;6243186;22;43952;-61
2022/07/20 07:22:51;;;;;;;2.40;2.20;;;24.80;63.50;;;;;;6242734;22;43420;-61
2022/07/20 07:25:19;;;;;;;2.40;2.20;;;24.80;63.40;;;;;;6242687;22;43351;-61
2022/07/20 07:27:46;;;;;;;2.10;2.00;;;24.80;63.40;;;;;;6243349;22;43446;-61
2022/07/20 07:30:14;;;;;;;2.20;2.10;;;24.80;63.40;;;;;;6242475;22;43756;-61
2022/07/20 07:32:41;;;;;;;2.47;2.28;;;24.80;63.40;;;;;;6242628;22;43897;-61
2022/07/20 07:35:09;;;;;;;4.07;2.30;;;24.80;63.30;;;;;;6243392;22;43396;-61
2022/07/20 07:37:39;;;;;;;2.40;2.30;;;24.80;63.30;;;;;;6243241;22;43407;-61
2022/07/20 07:40:07;;;;;;;3.65;2.20;;;24.80;63.30;;;;;;6242359;22;43758;-61
2022/07/20 07:42:34;;;;;;;2.42;2.20;;;24.80;63.30;;;;;;6243108;22;43364;-61
2022/07/20 07:45:06;;;;;;;2.78;2.55;;;24.90;63.30;;;;;;6243284;22;43367;-61
2022/07/20 07:47:34;;;;;;;2.47;2.28;;;24.80;63.20;;;;;;6242673;22;43407;-61
2022/07/20 07:50:03;;;;;;;3.15;2.22;;;24.90;63.30;;;;;;6216060;22;44678;-61
2022/07/20 07:52:30;;;;;;;2.03;1.90;;;24.90;63.20;;;;;;6243011;22;43874;-61
2022/07/20 07:54:57;;;;;;;2.13;1.90;;;24.90;63.20;;;;;;6243289;22;43374;-61
2022/07/20 07:57:25;;;;;;;1.90;1.80;;;24.90;63.10;;;;;;6215768;22;43594;-61
2022/07/20 07:59:52;;;;;;;2.38;2.17;;;24.90;63.10;;;;;;6242734;22;45085;-62
2022/07/20 08:02:20;;;;;;;2.50;2.30;;;24.90;63.10;;;;;;6242627;22;43399;-61
2022/07/20 08:04:47;;;;;;;2.70;2.38;;;24.90;63.20;;;;;;6242688;22;43399;-61
2022/07/20 08:07:15;;;;;;;2.03;1.92;;;24.90;63.10;;;;;;6242532;22;43462;-61
2022/07/20 08:09:43;;;;;;;2.30;2.10;;;24.90;63.10;;;;;;6215597;22;44739;-61
2022/07/20 08:12:11;;;;;;;3.35;2.42;;;24.90;63.20;;;;;;6242553;22;43959;-61
2022/07/20 08:14:38;;;;;;;2.65;2.25;;;24.90;63.10;;;;;;6242474;22;43959;-61
2022/07/20 08:17:05;;;;;;;2.50;2.30;;;24.90;63.20;;;;;;6242979;22;43580;-61
2022/07/20 08:19:34;;;;;;;3.38;2.38;;;24.90;63.10;;;;;;6215636;22;44923;-61
2022/07/20 08:22:02;;;;;;;2.90;2.30;;;24.90;63.20;;;;;;6242760;22;43930;-61
2022/07/20 08:24:29;;;;;;;2.42;2.22;;;24.90;63.20;;;;;;6243087;22;43391;-61
2022/07/20 08:26:56;;;;;;;2.50;2.30;;;25.00;63.20;;;;;;6243269;22;43559;-61
2022/07/20 08:29:24;;;;;;;2.70;2.50;;;25.00;63.20;;;;;;6242139;22;44008;-62
2022/07/20 08:31:51;;;;;;;2.60;2.40;;;25.00;63.20;;;;;;6242647;22;43840;-61
2022/07/20 08:34:19;;;;;;;2.75;2.50;;;25.00;63.20;;;;;;6242684;22;43343;-61
2022/07/20 08:36:49;;;;;;;3.20;2.88;;;25.00;63.20;;;;;;6242283;22;43469;-61
2022/07/20 08:39:16;;;;;;;2.83;2.60;;;25.00;63.20;;;;;;6242900;22;43763;-59
2022/07/20 08:41:45;;;;;;;2.90;2.70;;;25.00;63.20;;;;;;6242135;22;43950;-61
2022/07/20 08:44:13;;;;;;;2.70;2.50;;;25.00;63.20;;;;;;6242484;22;43396;-61
2022/07/20 08:46:45;;;;;;;3.10;2.90;;;25.00;63.30;;;;;;6242671;22;43420;-61
2022/07/20 08:49:14;;;;;;;3.25;2.90;;;25.00;63.70;;;;;;6242294;22;45099;-61
2022/07/20 08:51:42;;;;;;;3.30;3.00;;;25.00;63.50;;;;;;6242207;22;43414;-61
2022/07/20 08:54:09;;;;;;;3.38;2.90;;;25.10;63.50;;;;;;6241982;22;43393;-61
2022/07/20 08:56:37;;;;;;;3.20;2.90;;;25.10;63.40;;;;;;6241942;22;43442;-61
2022/07/20 08:59:05;;;;;;;3.08;2.88;;;25.00;63.30;;;;;;6242393;22;44029;-61
2022/07/20 09:01:32;;;;;;;3.53;3.17;;;25.10;64.10;;;;;;6242301;22;43946;-61
2022/07/20 09:04:09;;;;;;;3.35;3.05;;;25.10;63.50;;;;;;6242558;22;43477;-61
2022/07/20 09:06:48;;;;;;;3.85;3.10;;;25.10;63.40;;;;;;6242887;22;43498;-61
2022/07/20 09:09:17;;;;;;;4.00;3.40;;;25.10;63.40;;;;;;6242558;22;44673;-61
2022/07/20 09:11:46;;;;;;;3.60;3.30;;;25.10;63.50;;;;;;6241812;22;43420;-61
2022/07/20 09:14:34;;;;;;;4.40;4.00;;;25.10;63.50;;;;;;6242043;22;43383;-61
2022/07/20 09:17:17;;;;;;;4.30;3.90;;;25.10;63.50;;;;;;6216158;22;43508;-61
2022/07/20 09:20:05;;;;;;;4.07;3.67;;;25.10;63.40;;;;;;6242648;22;43751;-61
2022/07/20 09:22:37;;;;;;;5.72;4.43;;;25.10;63.50;;;;;;6242745;22;43371;-61
2022/07/20 09:25:13;;;;;;;3.97;3.58;;;25.10;63.50;;;;;;6242329;22;43400;-61
2022/07/20 09:27:42;;;;;;;3.95;3.60;;;25.20;63.60;;;;;;6242897;22;43511;-61
2022/07/20 09:30:16;;;;;;;4.55;3.90;;;25.10;63.50;;;;;;6241451;22;43780;-61
2022/07/20 09:33:03;;;;;;;5.60;4.22;;;25.20;63.60;;;;;;6241823;22;43364;-61
2022/07/20 09:35:33;;;;;;;6.07;4.22;;;25.20;63.60;;;;;;6242175;22;43407;-61
2022/07/20 09:38:07;;;;;;;4.70;4.30;;;25.20;63.60;;;;;;6242696;22;43397;-61
2022/07/20 09:40:40;;;;;;;5.35;4.85;;;25.20;63.70;;;;;;6242097;22;43882;-62
2022/07/20 09:43:28;;;;;;;5.25;4.75;;;25.30;63.70;;;;;;6241660;22;43687;-61
2022/07/20 09:46:07;;;;;;;5.43;4.90;;;25.30;63.80;;;;;;6242448;22;43409;-61
2022/07/20 09:49:04;;;;;;;5.57;5.03;;;25.30;63.80;;;;;;6242323;22;43353;-61
2022/07/20 09:51:41;;;;;;;5.63;5.13;;;25.30;63.80;;;;;;6241554;22;43990;-61
2022/07/20 09:54:11;;;;;;;5.95;5.20;;;25.30;63.90;;;;;;6240949;22;43399;-61
2022/07/20 09:56:43;;;;;;;7.50;5.93;;;25.40;63.90;;;;;;6242162;22;43359;-61
2022/07/20 09:59:12;;;;;;;6.20;5.70;;;25.40;63.80;;;;;;6241751;22;43351;-61
2022/07/20 10:01:45;;;;;;;8.27;6.20;;;25.40;63.80;;;;;;6241523;22;43758;-62
2022/07/20 10:04:15;;;;;;;7.40;6.30;;;25.40;64.00;;;;;;6241860;22;44099;-61
2022/07/20 10:06:45;;;;;;;7.40;6.70;;;25.40;64.00;;;;;;6241255;22;43410;-61
2022/07/20 10:09:17;;;;;;;7.63;6.32;;;25.40;63.90;;;;;;6242711;22;43386;-61
2022/07/20 10:11:48;;;;;;;7.72;7.00;;;25.40;63.90;;;;;;6241794;22;44672;-61
2022/07/20 10:14:21;;;;;;;6.93;6.32;;;25.40;63.80;;;;;;6241030;22;43691;-61
2022/07/20 10:16:51;;;;;;;8.55;7.65;;;25.50;64.00;;;;;;6242623;22;43403;-61
2022/07/20 10:19:20;;;;;;;8.68;7.53;;;25.50;64.30;;;;;;6241640;22;43443;-61
2022/07/20 10:21:53;;;;;;;8.85;7.95;;;25.50;64.00;;;;;;6241648;22;45134;-61
2022/07/20 10:24:29;;;;;;;8.50;7.70;;;25.50;64.00;;;;;;6241396;22;43475;-61
2022/07/20 10:27:16;;;;;;;8.65;7.82;;;25.50;64.20;;;;;;6242313;22;43372;-61
2022/07/20 10:29:55;;;;;;;9.27;8.30;;;25.50;64.00;;;;;;6243292;22;43470;-62
2022/07/20 10:32:32;;;;;;;9.48;8.50;;;25.50;64.00;;;;;;6216434;22;44053;-62
2022/07/20 10:35:03;;;;;;;9.50;8.50;;;25.60;64.10;;;;;;6243258;22;43434;-62
2022/07/20 10:37:33;;;;;;;11.55;8.65;;;25.60;64.20;;;;;;6243767;22;43442;-63
2022/07/20 10:40:05;;;;;;;11.73;9.02;;;25.60;64.10;;;;;;6243056;22;43526;-62
2022/07/20 10:42:41;;;;;;;10.38;9.38;;;25.60;64.10;;;;;;6242831;22;43776;-62
2022/07/20 10:45:14;;;;;;;9.77;8.80;;;25.70;64.10;;;;;;6242828;22;43933;-62
2022/07/20 10:47:50;;;;;;;10.38;9.35;;;25.70;64.10;;;;;;6243321;22;43394;-62
2022/07/20 10:50:23;;;;;;;9.52;8.68;;;25.70;64.20;;;;;;6242959;22;43423;-62
2022/07/20 10:52:56;;;;;;;10.30;9.25;;;25.60;64.00;;;;;;6242239;22;44002;-63
2022/07/20 10:55:35;;;;;;;10.20;9.30;;;25.70;64.30;;;;;;6242932;22;43366;-63
2022/07/20 10:58:16;;;;;;;9.52;8.63;;;25.70;64.10;;;;;;6242927;22;43450;-62
2022/07/20 11:00:53;;;;;;;11.10;9.48;;;25.70;63.90;;;;;;6243168;22;43534;-62
2022/07/20 11:03:34;;;;;;;11.02;9.82;;;25.70;63.80;;;;;;6242102;22;44665;-63
2022/07/20 11:06:12;;;;;;;10.65;9.57;;;25.80;64.00;;;;;;6243329;22;43463;-62
2022/07/20 11:08:59;;;;;;;10.05;9.05;;;25.80;63.90;;;;;;6243189;22;43370;-62
2022/07/20 11:11:34;;;;;;;12.02;9.77;;;25.80;64.00;;;;;;6242762;22;43514;-63
2022/07/20 11:14:05;;;;;;;10.30;9.30;;;25.80;63.80;;;;;;6243162;22;44683;-62
2022/07/20 11:16:34;;;;;;;;;;;25.80;63.90;;;;;;6243112;22;43379;-62
2022/07/20 11:19:04;;;;;;;9.85;8.88;;;25.80;63.80;;;;;;6243777;22;43329;-62
2022/07/20 11:21:32;;;;;;;9.80;8.80;;;25.80;63.80;;;;;;6242620;22;43403;-62
2022/07/20 11:24:23;;;;;;;11.25;10.15;;;25.80;63.80;;;;;;6242317;22;43814;-62
2022/07/20 11:26:51;;;;;;;10.57;9.48;;;25.90;63.80;;;;;;6243040;22;43693;-63
2022/07/20 11:29:25;;;;;;;10.68;9.57;;;25.90;63.90;;;;;;6242899;22;43392;-61
2022/07/20 11:31:53;;;;;;;9.35;8.55;;;25.90;64.00;;;;;;6242248;22;43457;-63
2022/07/20 11:34:20;;;;;;;10.88;9.82;;;25.90;63.90;;;;;;6242692;22;44949;-63
2022/07/20 11:36:49;;;;;;;9.95;9.05;;;25.90;63.90;;;;;;6242333;22;43467;-63
2022/07/20 11:39:17;;;;;;;10.23;9.23;;;25.90;63.80;;;;;;6241387;22;43363;-63
2022/07/20 11:41:46;;;;;;;9.55;8.75;;;26.00;63.90;;;;;;6243034;22;43538;-63
2022/07/20 11:44:19;;;;;;;10.93;9.55;;;26.00;63.90;;;;;;6241982;22;45064;-63
2022/07/20 11:46:48;;;;;;;10.18;9.10;;;26.00;63.70;;;;;;6242629;22;43416;-62
2022/07/20 11:49:17;;;;;;;9.50;8.60;;;26.00;63.70;;;;;;6243064;22;43430;-63
2022/07/20 11:52:01;;;;;;;9.65;8.75;;;26.00;63.60;;;;;;6242705;22;43406;-63
2022/07/20 11:54:33;;;;;;;9.40;8.50;;;26.10;63.70;;;;;;6243207;22;44641;-63
2022/07/20 11:57:03;;;;;;;8.93;8.18;;;26.10;63.70;;;;;;6243068;22;44035;-63
2022/07/20 11:59:30;;;;;;;10.18;8.30;;;26.10;63.70;;;;;;6242624;22;43443;-63
2022/07/20 12:01:59;;;;;;;9.23;8.43;;;26.10;63.70;;;;;;6242972;22;44091;-63
2022/07/20 12:04:34;;;;;;;9.70;8.90;;;26.10;63.60;;;;;;6242377;22;44762;-63
2022/07/20 12:08:07;;;;;;;9.95;9.05;;;26.10;63.60;;;;;;6242837;22;44004;-63
2022/07/20 12:09:50;;;;;;;10.25;9.25;;;26.20;63.60;;;;;;6220564;22;43501;-63
2022/07/20 12:12:44;;;;;;;9.80;8.80;;;26.20;63.60;;;;;;6242675;22;43491;-63
2022/07/20 12:15:12;;;;;;;9.15;8.13;;;26.30;63.60;;;;;;6242523;22;43965;-63
2022/07/20 12:17:51;;;;;;;9.38;8.35;;;26.30;63.70;;;;;;6242360;22;43388;-62
2022/07/20 12:20:21;;;;;;;9.00;8.20;;;26.30;63.60;;;;;;6242724;22;43375;-62
2022/07/20 12:22:54;;;;;;;9.35;8.38;;;26.30;63.60;;;;;;6243070;22;43406;-62
2022/07/20 12:25:33;;;;;;;10.25;9.23;;;26.30;63.50;;;;;;6242648;22;44718;-62
2022/07/20 12:28:01;;;;;;;9.13;8.32;;;26.30;63.60;;;;;;6242503;22;43666;-62
2022/07/20 12:30:41;;;;;;;8.98;8.07;;;26.40;63.60;;;;;;6242650;22;43422;-63
2022/07/20 12:33:11;;;;;;;9.23;8.32;;;26.40;64.00;;;;;;6244144;22;43451;-63
2022/07/20 12:35:43;;;;;;;9.18;8.27;;;26.40;63.50;;;;;;6244017;22;44026;-63
2022/07/20 12:38:12;;;;;;;9.98;9.02;;;26.40;63.50;;;;;;6244489;22;43680;-62
2022/07/20 12:40:49;;;;;;;8.68;7.80;;;26.40;63.40;;;;;;6244751;22;43459;-63
2022/07/20 12:43:41;;;;;;;9.13;8.18;;;26.50;63.40;;;;;;6244428;22;43481;-63
2022/07/20 12:46:11;;;;;;;9.13;8.27;;;26.50;63.30;;;;;;6244734;22;44861;-64
2022/07/20 12:48:41;;;;;;;8.75;7.95;;;26.60;63.30;;;;;;6244997;22;43447;-63
2022/07/20 12:51:10;;;;;;;8.68;7.88;;;26.60;63.30;;;;;;6243632;22;43438;-63
2022/07/20 12:53:39;;;;;;;8.13;7.43;;;26.50;63.20;;;;;;6244339;22;43459;-63
2022/07/20 12:56:13;;;;;;;8.50;7.70;;;26.60;63.30;;;;;;6243857;22;43993;-63
2022/07/20 12:58:41;;;;;;;8.32;7.53;;;26.60;63.20;;;;;;6244178;22;43431;-63
2022/07/20 13:01:11;;;;;;;8.55;7.75;;;26.60;63.20;;;;;;6244386;22;43413;-63